Enter the Airport ICAO Code

Search by Airport or City

Current Weather

LEAB | Albacete Airport

Albacete, Castilla-La Mancha, Spain

Last Update 7 Minutes Ago

Clear Sky

Temperature of 15 ēC

Light Winds from SouthWest

Temperature

15 ēC

Dew Point Temperature

07 ēC

Relative Humidity

58.91 %

Wind Direction

SouthWest (220ē, Without Significant Variations)

Wind Velocity

7 km/h (04 kt)

Gusts

None

Visibility

No Significant Reductions

Sea Level Pressure

1022 hPa (Hectopascals)

Layers of Clouds

None

METAR LEAB 202300Z 22004KT CAVOK 15/07 Q1022 NOSIG

Weather Forecast

LEAB | Albacete Airport

Albacete, Castilla-La Mancha, Spain

Forecast valid for the next 19 Hours

From now on it is expected:

Clear Sky

Light to Moderate Winds from South

From now on it is expected 2 hours with intermittent periods of:

Light to Moderate Winds from Variable Directions

In 1 to 3 hours it is expected the begining of:

Light to Moderate Winds from West

In 10 to 12 hours it is expected the begining of:

Moderate Winds from NorthWest

Maximum Temperature

26 ēC in 16 Hours

Minimum Temperature

12 ēC in 7 Hours

TAF LEAB 201700Z 2018/2118 17008KT CAVOK TX26/2115Z TN12/2106Z TEMPO 2018/2101 VRB05KT BECMG 2100/2102 25006KT BECMG 2109/2111 30010KT